createdAt,value
2018-01-31T01:52:21.162Z,6.70
2018-01-31T01:54:45.855Z,6.80
2018-01-31T01:57:14.101Z,6.77
2018-01-31T01:59:42.330Z,7.50
2018-01-31T02:02:10.633Z,10.67
2018-01-31T02:04:38.860Z,7.73
2018-01-31T02:07:07.110Z,6.70
2018-01-31T02:09:35.353Z,8.00
2018-01-31T02:12:04.448Z,7.70
2018-01-31T02:14:33.417Z,7.80
2018-01-31T02:17:01.749Z,7.77
2018-01-31T02:19:30.734Z,6.30
2018-01-31T02:21:58.972Z,7.13
2018-01-31T02:24:27.194Z,5.60
2018-01-31T02:26:56.204Z,6.67
2018-01-31T02:29:25.386Z,8.47
2018-01-31T02:31:54.407Z,6.20
2018-01-31T02:34:23.286Z,7.70
2018-01-31T02:36:51.536Z,7.30
2018-01-31T02:39:31.569Z,7.33
2018-01-31T02:42:00.744Z,7.87
2018-01-31T02:44:28.983Z,7.00
2018-01-31T02:46:57.392Z,7.17
2018-01-31T02:49:25.630Z,10.30
2018-01-31T02:51:54.633Z,6.67
2018-01-31T02:54:23.052Z,6.67
2018-01-31T02:56:51.280Z,7.00
2018-01-31T02:59:20.333Z,6.73
2018-01-31T03:01:48.557Z,6.70
2018-01-31T03:04:16.786Z,6.70
2018-01-31T03:06:45.086Z,7.13
2018-01-31T03:09:13.293Z,6.63
2018-01-31T03:11:41.548Z,5.83
2018-01-31T03:14:09.853Z,6.07
2018-01-31T03:16:38.104Z,5.70
2018-01-31T03:19:07.111Z,6.10
2018-01-31T03:21:35.404Z,4.83
2018-01-31T03:24:03.736Z,4.40
2018-01-31T03:26:31.987Z,4.20
2018-01-31T03:29:00.269Z,4.93
2018-01-31T03:31:28.514Z,4.20
2018-01-31T03:33:56.740Z,4.80
2018-01-31T03:36:25.040Z,6.57
2018-01-31T03:38:53.338Z,3.80
2018-01-31T03:41:21.589Z,4.47
2018-01-31T03:43:51.117Z,3.93
2018-01-31T03:46:19.351Z,3.10
2018-01-31T03:48:47.580Z,2.67
2018-01-31T03:51:15.853Z,3.00
2018-01-31T03:53:44.105Z,2.50
2018-01-31T03:56:13.101Z,2.40
2018-01-31T03:58:41.376Z,2.53
2018-01-31T04:01:09.608Z,3.27
2018-01-31T04:03:37.844Z,2.20
2018-01-31T04:06:06.103Z,1.93
2018-01-31T04:08:34.332Z,1.87
2018-01-31T04:11:02.584Z,1.77
2018-01-31T04:13:31.009Z,1.70
2018-01-31T04:15:59.289Z,1.77
2018-01-31T04:18:27.781Z,2.63
2018-01-31T04:20:56.248Z,2.20
2018-01-31T04:23:24.545Z,1.70
2018-01-31T04:25:52.809Z,2.10
2018-01-31T04:28:21.141Z,2.50
2018-01-31T04:30:49.511Z,2.07
2018-01-31T04:33:17.877Z,2.43
2018-01-31T04:35:46.116Z,2.40
2018-01-31T04:38:14.393Z,4.17
2018-01-31T04:40:43.391Z,2.77
2018-01-31T04:43:12.387Z,3.10
2018-01-31T04:45:40.660Z,2.83
2018-01-31T04:48:08.964Z,3.20
2018-01-31T04:50:38.190Z,3.60
2018-01-31T04:53:06.583Z,3.40
2018-01-31T04:55:34.846Z,3.40
2018-01-31T04:58:03.301Z,3.73
2018-01-31T05:00:31.678Z,3.73
2018-01-31T05:03:00.629Z,3.93
2018-01-31T05:05:28.865Z,3.57
2018-01-31T05:07:57.340Z,3.50
2018-01-31T05:10:25.617Z,4.17
2018-01-31T05:12:53.843Z,3.37
2018-01-31T05:15:22.085Z,3.50
2018-01-31T05:17:50.330Z,4.00
2018-01-31T05:20:18.717Z,3.10
2018-01-31T05:22:46.945Z,3.43
2018-01-31T05:25:15.184Z,3.30
2018-01-31T05:27:43.417Z,3.23
2018-01-31T05:30:11.671Z,3.20
2018-01-31T05:32:39.877Z,3.23
2018-01-31T05:35:08.160Z,2.90
2018-01-31T05:37:36.413Z,3.57
2018-01-31T05:40:05.409Z,3.73
2018-01-31T05:42:34.522Z,2.33
2018-01-31T05:45:02.769Z,2.37
2018-01-31T05:47:31.037Z,2.57
2018-01-31T05:49:59.273Z,2.80
2018-01-31T05:52:27.560Z,2.70
2018-01-31T05:54:55.837Z,3.60
2018-01-31T05:57:24.284Z,2.50
2018-01-31T05:59:52.538Z,1.90
2018-01-31T06:05:01.490Z,2.70
2018-01-31T06:07:29.765Z,2.43
2018-01-31T06:09:57.992Z,2.33
2018-01-31T06:12:26.240Z,2.63
2018-01-31T06:14:54.466Z,2.53
2018-01-31T06:17:22.719Z,2.40
2018-01-31T06:19:50.978Z,2.40
2018-01-31T06:22:19.413Z,2.47
2018-01-31T06:24:47.661Z,2.60
2018-01-31T06:27:15.916Z,3.30
2018-01-31T06:29:44.149Z,2.90
2018-01-31T06:32:13.172Z,1.90
2018-01-31T06:34:41.520Z,2.20
2018-01-31T06:37:10.611Z,3.07
2018-01-31T06:39:38.855Z,1.80
2018-01-31T06:42:07.083Z,2.93
2018-01-31T06:44:35.333Z,2.10
2018-01-31T06:47:03.580Z,1.90
2018-01-31T06:49:33.353Z,1.80
2018-01-31T06:52:02.488Z,1.60
2018-01-31T06:54:30.765Z,2.10
2018-01-31T06:56:59.026Z,2.50
2018-01-31T06:59:27.273Z,1.90
2018-01-31T07:01:55.522Z,4.10
2018-01-31T07:04:23.940Z,2.20
2018-01-31T07:09:26.890Z,1.97
2018-01-31T07:11:55.096Z,2.63
2018-01-31T07:14:23.325Z,1.70
2018-01-31T07:16:51.719Z,2.80
2018-01-31T07:19:19.961Z,1.43
2018-01-31T07:21:48.206Z,1.20
2018-01-31T07:24:16.752Z,1.43
2018-01-31T07:26:44.961Z,1.40
2018-01-31T07:29:13.229Z,5.07
2018-01-31T07:31:42.215Z,1.20
2018-01-31T07:34:10.473Z,0.80
2018-01-31T07:36:39.497Z,1.13
2018-01-31T07:39:07.785Z,1.00
2018-01-31T07:41:36.045Z,1.30
2018-01-31T07:44:05.055Z,0.70
2018-01-31T07:46:33.333Z,0.60
2018-01-31T07:49:01.549Z,0.40
2018-01-31T07:51:29.884Z,0.50
2018-01-31T07:53:58.144Z,0.80
2018-01-31T07:56:26.442Z,0.60
2018-01-31T07:58:54.702Z,0.80
2018-01-31T08:01:22.941Z,0.60
2018-01-31T08:03:52.085Z,1.27
2018-01-31T08:06:20.330Z,0.50
2018-01-31T08:08:48.554Z,0.77
2018-01-31T08:11:16.810Z,0.87
2018-01-31T08:13:45.065Z,0.83
2018-01-31T08:16:13.381Z,0.73
2018-01-31T08:18:41.660Z,1.27
2018-01-31T08:21:09.933Z,1.43
2018-01-31T08:23:38.252Z,1.90
2018-01-31T08:26:06.532Z,3.00
2018-01-31T08:28:34.790Z,1.83
2018-01-31T08:31:03.094Z,2.20
2018-01-31T08:33:31.344Z,1.70
2018-01-31T08:35:59.577Z,1.60
2018-01-31T08:38:27.864Z,1.80
2018-01-31T08:40:57.016Z,1.37
2018-01-31T08:43:25.443Z,1.50
2018-01-31T08:45:53.720Z,1.53
2018-01-31T08:48:21.974Z,1.57
2018-01-31T08:50:50.316Z,1.63
2018-01-31T08:53:18.511Z,1.20
2018-01-31T08:55:47.536Z,1.97
2018-01-31T08:58:15.964Z,1.27
2018-01-31T09:00:44.224Z,1.93
2018-01-31T09:03:12.423Z,1.07
2018-01-31T09:05:41.516Z,1.37
2018-01-31T09:08:09.737Z,1.50
2018-01-31T09:10:38.064Z,1.10
2018-01-31T09:13:06.273Z,1.70
2018-01-31T09:15:34.525Z,1.73
2018-01-31T09:18:02.769Z,1.40
2018-01-31T09:20:31.037Z,1.20
2018-01-31T09:22:59.281Z,1.33
2018-01-31T09:25:27.551Z,1.20
2018-01-31T09:27:55.825Z,1.13
2018-01-31T09:30:24.097Z,1.20
2018-01-31T09:32:52.352Z,1.27
2018-01-31T09:35:20.640Z,1.87
2018-01-31T09:37:49.102Z,1.17
2018-01-31T09:40:17.358Z,2.73
2018-01-31T09:42:45.651Z,0.80
2018-01-31T09:45:13.917Z,1.43
2018-01-31T09:47:42.323Z,1.30
2018-01-31T09:50:10.801Z,1.60
2018-01-31T09:52:52.438Z,0.90
2018-01-31T09:55:25.625Z,0.63
2018-01-31T09:57:53.877Z,1.33
2018-01-31T10:00:22.567Z,1.17
2018-01-31T10:02:50.842Z,1.03
2018-01-31T10:05:19.101Z,0.60
2018-01-31T10:07:47.355Z,1.73
2018-01-31T10:10:15.596Z,1.33
2018-01-31T10:12:43.858Z,0.73
2018-01-31T10:15:12.093Z,0.80
2018-01-31T10:17:40.329Z,0.87
2018-01-31T10:20:08.580Z,2.40
2018-01-31T10:22:37.020Z,0.70
2018-01-31T10:25:05.237Z,0.90
2018-01-31T10:27:33.528Z,1.23
2018-01-31T10:30:01.773Z,1.10
2018-01-31T10:32:30.803Z,0.73
2018-01-31T10:34:59.055Z,0.80
2018-01-31T10:37:27.313Z,1.37
2018-01-31T10:39:55.554Z,0.70
2018-01-31T10:42:23.776Z,0.93
2018-01-31T10:44:52.054Z,0.60
2018-01-31T10:47:21.241Z,0.83
2018-01-31T10:49:49.513Z,0.83
2018-01-31T10:52:17.729Z,0.50
2018-01-31T10:57:28.988Z,0.50
2018-01-31T10:59:42.509Z,0.77
2018-01-31T11:02:10.793Z,0.80
2018-01-31T11:04:39.784Z,0.57
2018-01-31T11:07:08.034Z,1.13
2018-01-31T11:09:36.300Z,0.50
2018-01-31T11:12:05.141Z,1.27
2018-01-31T11:14:33.424Z,0.60
2018-01-31T11:17:01.685Z,2.00
2018-01-31T11:19:30.902Z,1.57
2018-01-31T11:21:59.280Z,0.90
2018-01-31T11:24:27.753Z,0.93
2018-01-31T11:26:56.233Z,1.40
2018-01-31T11:29:24.441Z,1.07
2018-01-31T11:31:52.665Z,2.00
2018-01-31T11:34:20.918Z,0.60
2018-01-31T11:36:49.164Z,1.53
2018-01-31T11:39:17.453Z,0.50
2018-01-31T11:41:46.174Z,1.13
2018-01-31T11:44:14.409Z,1.03
2018-01-31T11:46:42.687Z,0.50
2018-01-31T11:49:11.202Z,0.70
2018-01-31T11:51:39.430Z,0.43
2018-01-31T11:54:07.667Z,0.60
2018-01-31T11:56:36.959Z,0.57
2018-01-31T11:59:05.996Z,0.40
2018-01-31T12:01:34.340Z,1.10
2018-01-31T12:04:02.799Z,2.10
2018-01-31T12:06:31.048Z,0.30
2018-01-31T12:08:59.355Z,1.27
2018-01-31T12:11:28.389Z,0.50
2018-01-31T12:14:17.525Z,3.20
2018-01-31T12:16:57.669Z,0.70
2018-01-31T12:19:41.373Z,4.20
2018-01-31T12:25:21.205Z,0.50
2018-01-31T12:28:01.840Z,1.30
2018-01-31T12:30:51.759Z,1.00
2018-01-31T12:36:36.418Z,1.03
2018-01-31T12:39:05.005Z,1.30
2018-01-31T12:41:32.759Z,1.50
2018-01-31T12:44:00.512Z,1.50
2018-01-31T12:46:40.672Z,4.03
2018-01-31T12:49:20.784Z,3.13
2018-01-31T12:52:02.625Z,1.03
2018-01-31T12:54:40.324Z,1.37
2018-01-31T12:57:20.481Z,0.90
2018-01-31T13:00:00.486Z,2.30
2018-01-31T13:05:43.376Z,2.30
2018-01-31T13:08:23.306Z,0.80
2018-01-31T13:11:03.041Z,0.83
2018-01-31T13:13:42.821Z,0.77
2018-01-31T13:16:22.686Z,1.50
2018-01-31T13:19:02.448Z,1.30
2018-01-31T13:21:42.250Z,1.00
2018-01-31T13:24:22.068Z,1.20
2018-01-31T13:27:02.049Z,1.10
2018-01-31T13:29:30.128Z,1.27
2018-01-31T13:32:10.241Z,0.90
2018-01-31T13:34:50.311Z,0.63
2018-01-31T13:37:35.845Z,0.50
2018-01-31T13:40:22.904Z,0.83
2018-01-31T13:43:03.045Z,0.27
2018-01-31T13:45:43.126Z,0.30
2018-01-31T13:48:23.787Z,0.70
2018-01-31T13:51:01.569Z,0.43
2018-01-31T13:53:41.497Z,0.40
2018-01-31T13:56:21.299Z,2.17
2018-01-31T13:59:01.426Z,2.63
2018-01-31T14:01:41.427Z,3.10
2018-01-31T14:04:21.281Z,0.97
2018-01-31T14:07:01.906Z,0.50
2018-01-31T14:09:42.115Z,0.40
2018-01-31T14:12:21.854Z,0.90
2018-01-31T14:15:02.120Z,0.30
2018-01-31T14:17:42.018Z,0.60
2018-01-31T14:20:21.754Z,0.87
2018-01-31T14:23:01.684Z,0.30
2018-01-31T14:25:41.825Z,0.50
2018-01-31T14:28:22.509Z,0.70
2018-01-31T14:30:56.430Z,1.90
2018-01-31T14:33:36.673Z,1.70
2018-01-31T14:36:12.192Z,0.60
2018-01-31T14:38:40.523Z,0.73
2018-01-31T14:41:08.041Z,1.37
2018-01-31T14:43:35.595Z,0.93
2018-01-31T14:46:03.212Z,0.60
2018-01-31T14:48:30.759Z,0.80
2018-01-31T14:50:58.249Z,0.93
2018-01-31T14:53:25.777Z,0.50
2018-01-31T14:55:53.439Z,0.40
2018-01-31T14:58:20.892Z,1.17
2018-01-31T15:00:48.411Z,1.80
2018-01-31T15:03:16.063Z,1.53
2018-01-31T15:05:43.656Z,0.47
2018-01-31T15:08:11.920Z,0.83
2018-01-31T15:10:39.718Z,0.47
2018-01-31T15:13:07.300Z,3.33
2018-01-31T15:15:34.906Z,6.97
2018-01-31T15:18:02.459Z,1.40
2018-01-31T15:20:29.968Z,1.97
2018-01-31T15:22:57.620Z,4.03
2018-01-31T15:25:25.126Z,2.60
2018-01-31T15:27:53.400Z,2.30
2018-01-31T15:30:20.957Z,4.33
2018-01-31T15:32:49.322Z,0.80
2018-01-31T15:35:17.052Z,0.90
2018-01-31T15:37:44.610Z,1.80
2018-01-31T15:40:12.241Z,1.83
2018-01-31T15:42:39.865Z,2.73
2018-01-31T15:45:07.598Z,2.10
2018-01-31T15:47:35.062Z,0.83
2018-01-31T15:50:02.592Z,2.47
2018-01-31T15:52:30.126Z,1.90
2018-01-31T15:54:58.401Z,2.20
2018-01-31T15:57:25.932Z,3.53
2018-01-31T15:59:53.437Z,4.30
2018-01-31T16:02:20.941Z,3.40
2018-01-31T16:04:48.483Z,2.30
2018-01-31T16:07:16.083Z,1.73
2018-01-31T16:09:43.621Z,2.67
2018-01-31T16:12:11.128Z,2.40
2018-01-31T16:14:38.657Z,0.80
2018-01-31T16:17:06.657Z,3.10
2018-01-31T16:19:46.547Z,3.30
2018-01-31T16:22:14.642Z,1.43
2018-01-31T16:24:42.898Z,4.93
2018-01-31T16:27:22.797Z,3.47
2018-01-31T16:30:12.763Z,2.27
2018-01-31T16:32:52.649Z,1.57
2018-01-31T16:35:20.644Z,3.53
2018-01-31T16:37:48.661Z,3.57
2018-01-31T16:40:16.692Z,2.10
2018-01-31T16:42:44.710Z,1.53
2018-01-31T16:45:12.737Z,1.60
2018-01-31T16:47:40.778Z,2.50
2018-01-31T16:50:08.926Z,2.60
2018-01-31T16:52:37.077Z,5.20
2018-01-31T16:55:05.139Z,2.07
2018-01-31T16:57:33.122Z,3.60
2018-01-31T17:00:01.913Z,3.17
2018-01-31T17:02:29.963Z,4.20
2018-01-31T17:04:58.016Z,1.93
2018-01-31T17:07:26.115Z,1.07
2018-01-31T17:09:54.205Z,5.00
2018-01-31T17:12:22.205Z,3.17
2018-01-31T17:14:50.512Z,3.90
2018-01-31T17:17:18.754Z,4.70
2018-01-31T17:19:46.972Z,3.20
2018-01-31T17:22:16.080Z,2.40
2018-01-31T17:24:44.337Z,2.50
2018-01-31T17:27:13.498Z,3.80
2018-01-31T17:29:41.803Z,5.60
2018-01-31T17:32:10.050Z,4.10
2018-01-31T17:34:38.300Z,4.83
2018-01-31T17:37:06.629Z,4.70
2018-01-31T17:39:34.840Z,3.03
2018-01-31T17:42:03.129Z,3.93
2018-01-31T17:44:31.401Z,1.27
2018-01-31T17:46:59.706Z,2.10
2018-01-31T17:49:28.155Z,6.00
2018-01-31T17:51:56.435Z,1.70
2018-01-31T17:54:24.678Z,6.00
2018-01-31T17:56:53.765Z,5.57
2018-01-31T17:59:22.908Z,4.53
2018-01-31T18:01:51.221Z,3.20
2018-01-31T18:04:19.492Z,2.60
2018-01-31T18:06:47.736Z,4.23
2018-01-31T18:09:16.061Z,2.63
2018-01-31T18:11:44.477Z,1.87
2018-01-31T18:14:12.701Z,2.67
2018-01-31T18:16:41.004Z,2.17
2018-01-31T18:19:10.190Z,3.20
2018-01-31T18:21:38.428Z,3.27
2018-01-31T18:24:06.712Z,1.73
2018-01-31T18:26:34.957Z,0.67
2018-01-31T18:29:03.211Z,1.10
2018-01-31T18:31:31.580Z,1.13
2018-01-31T18:33:59.996Z,1.63
2018-01-31T18:36:29.050Z,0.67
2018-01-31T18:38:57.630Z,2.20
2018-01-31T18:41:26.446Z,1.47
2018-01-31T18:43:54.702Z,1.00
2018-01-31T18:46:23.825Z,1.63
2018-01-31T18:48:52.784Z,1.67
2018-01-31T18:51:21.936Z,0.53
2018-01-31T18:53:51.027Z,1.60
2018-01-31T18:56:19.280Z,1.30
2018-01-31T18:58:47.487Z,1.57
2018-01-31T19:01:17.344Z,5.13
2018-01-31T19:03:45.591Z,1.67
2018-01-31T19:06:13.833Z,1.90
2018-01-31T19:08:42.081Z,1.70
2018-01-31T19:11:10.317Z,1.50
2018-01-31T19:13:38.579Z,2.33
2018-01-31T19:16:06.799Z,2.03
2018-01-31T19:18:35.077Z,3.47
2018-01-31T19:21:04.076Z,3.00
2018-01-31T19:23:32.346Z,4.23
2018-01-31T19:26:00.616Z,1.23
2018-01-31T19:28:28.834Z,1.97
2018-01-31T19:30:57.698Z,1.13
2018-01-31T19:33:26.710Z,1.20
2018-01-31T19:35:55.122Z,1.30
2018-01-31T19:38:23.353Z,1.07
2018-01-31T19:40:52.367Z,2.40
2018-01-31T19:43:20.699Z,1.10
2018-01-31T19:45:49.027Z,1.47
2018-01-31T19:48:17.293Z,2.20
2018-01-31T19:50:46.372Z,1.60
2018-01-31T19:53:14.658Z,2.10
2018-01-31T19:55:42.906Z,1.73
2018-01-31T19:58:11.454Z,2.57
2018-01-31T20:00:39.755Z,1.50
2018-01-31T20:03:08.020Z,5.10
2018-01-31T20:05:37.164Z,2.50
2018-01-31T20:08:05.381Z,1.17
2018-01-31T20:10:33.794Z,2.67
2018-01-31T20:13:02.101Z,3.10
2018-01-31T20:15:30.338Z,1.93
2018-01-31T20:17:58.638Z,2.20
2018-01-31T20:20:27.772Z,1.87
2018-01-31T20:22:56.001Z,3.50
2018-01-31T20:25:24.998Z,2.73
2018-01-31T20:27:53.247Z,2.33
2018-01-31T20:30:21.482Z,2.73
2018-01-31T20:32:49.750Z,2.50
2018-01-31T20:35:18.001Z,2.60
2018-01-31T20:37:47.005Z,2.13
2018-01-31T20:40:15.465Z,2.57
2018-01-31T20:42:43.662Z,4.27
2018-01-31T20:45:12.696Z,2.20
2018-01-31T20:47:40.944Z,3.10
2018-01-31T20:50:09.371Z,2.63
2018-01-31T20:52:38.486Z,2.80
2018-01-31T20:55:06.739Z,2.87
2018-01-31T20:57:34.983Z,3.43
2018-01-31T21:00:03.283Z,3.60
2018-01-31T21:02:31.551Z,2.80
2018-01-31T21:04:59.797Z,4.67
2018-01-31T21:07:28.160Z,4.43
2018-01-31T21:09:57.194Z,3.20
2018-01-31T21:12:25.533Z,3.93
2018-01-31T21:14:53.900Z,3.37
2018-01-31T21:17:22.423Z,4.20
2018-01-31T21:19:50.673Z,5.37
2018-01-31T21:22:19.080Z,3.97
2018-01-31T21:24:47.322Z,3.87
2018-01-31T21:27:16.498Z,4.10
2018-01-31T21:29:44.729Z,4.63
2018-01-31T21:32:12.952Z,3.17
2018-01-31T21:34:41.327Z,4.10
2018-01-31T21:37:09.536Z,3.67
2018-01-31T21:39:37.800Z,4.70
2018-01-31T21:42:06.918Z,4.03
2018-01-31T21:44:35.252Z,7.00
2018-01-31T21:47:03.495Z,7.73
2018-01-31T21:49:31.755Z,5.60
2018-01-31T21:52:00.386Z,5.83
2018-01-31T21:54:28.651Z,5.40
2018-01-31T21:56:56.873Z,5.00
2018-01-31T21:59:25.235Z,6.37
2018-01-31T22:01:54.324Z,6.90
2018-01-31T22:04:22.580Z,6.30
2018-01-31T22:06:50.914Z,8.30
2018-01-31T22:09:19.153Z,8.30
2018-01-31T22:11:47.399Z,6.20
2018-01-31T22:14:15.649Z,11.13
2018-01-31T22:16:43.952Z,7.27
2018-01-31T22:19:13.043Z,6.73
2018-01-31T22:21:41.264Z,9.73
2018-01-31T22:24:10.380Z,8.83
2018-01-31T22:26:38.620Z,7.33
2018-01-31T22:29:07.775Z,7.47
2018-01-31T22:31:36.104Z,6.90
2018-01-31T22:34:04.350Z,6.90
2018-01-31T22:36:32.642Z,9.83
2018-01-31T22:39:01.120Z,7.13
2018-01-31T22:41:30.267Z,6.40
2018-01-31T22:43:58.535Z,8.77
2018-01-31T22:46:26.881Z,6.57
2018-01-31T22:48:56.004Z,6.30
2018-01-31T22:51:24.310Z,9.27
2018-01-31T22:53:52.554Z,10.77
2018-01-31T22:56:20.816Z,6.70
2018-01-31T22:58:49.821Z,8.40
2018-01-31T23:01:18.076Z,6.67
2018-01-31T23:03:46.346Z,7.47
2018-01-31T23:06:14.579Z,7.77
2018-01-31T23:08:43.040Z,7.67
2018-01-31T23:11:11.325Z,8.70
2018-01-31T23:13:45.265Z,6.20
2018-01-31T23:16:13.629Z,8.50
2018-01-31T23:18:41.924Z,5.67
2018-01-31T23:21:10.214Z,7.83
2018-01-31T23:23:38.467Z,7.23
2018-01-31T23:26:06.711Z,9.73
2018-01-31T23:28:34.981Z,7.30
2018-01-31T23:31:04.040Z,9.83
2018-01-31T23:33:33.121Z,9.10
2018-01-31T23:36:01.441Z,6.47
2018-01-31T23:38:30.451Z,9.00
2018-01-31T23:40:58.826Z,9.33
2018-01-31T23:43:27.065Z,12.20
2018-01-31T23:45:55.294Z,8.30
2018-01-31T23:48:23.532Z,7.40
2018-01-31T23:50:51.793Z,6.80
2018-01-31T23:53:20.037Z,9.90
2018-01-31T23:55:49.899Z,12.17
2018-01-31T23:58:18.940Z,11.43
